sensor_id;sensor_type;location;lat;lon;timestamp;P1;durP1;ratioP1;P2;durP2;ratioP2
52618;SDS011;38513;53.234;6.568;2023-07-13T00:00:29;13.02;;;3.10;;
52618;SDS011;38513;53.234;6.568;2023-07-13T00:02:57;13.63;;;3.22;;
52618;SDS011;38513;53.234;6.568;2023-07-13T00:05:23;12.35;;;3.38;;
52618;SDS011;38513;53.234;6.568;2023-07-13T00:07:50;13.85;;;3.17;;
52618;SDS011;38513;53.234;6.568;2023-07-13T00:10:16;11.90;;;3.25;;
52618;SDS011;38513;53.234;6.568;2023-07-13T00:12:43;11.75;;;3.05;;
52618;SDS011;38513;53.234;6.568;2023-07-13T00:15:20;14.32;;;3.60;;
52618;SDS011;38513;53.234;6.568;2023-07-13T00:17:51;15.27;;;3.50;;
52618;SDS011;38513;53.234;6.568;2023-07-13T00:20:18;12.68;;;3.30;;
52618;SDS011;38513;53.234;6.568;2023-07-13T00:22:46;10.52;;;3.03;;
52618;SDS011;38513;53.234;6.568;2023-07-13T00:25:12;12.05;;;3.38;;
52618;SDS011;38513;53.234;6.568;2023-07-13T00:27:38;15.45;;;3.40;;
52618;SDS011;38513;53.234;6.568;2023-07-13T00:30:05;12.43;;;3.00;;
52618;SDS011;38513;53.234;6.568;2023-07-13T00:32:31;12.18;;;3.45;;
52618;SDS011;38513;53.234;6.568;2023-07-13T00:34:58;11.93;;;3.30;;
52618;SDS011;38513;53.234;6.568;2023-07-13T00:37:25;13.02;;;3.05;;
52618;SDS011;38513;53.234;6.568;2023-07-13T00:39:51;12.10;;;3.15;;
52618;SDS011;38513;53.234;6.568;2023-07-13T00:42:17;14.47;;;3.27;;
52618;SDS011;38513;53.234;6.568;2023-07-13T00:47:28;14.68;;;2.97;;
52618;SDS011;38513;53.234;6.568;2023-07-13T00:49:54;13.05;;;3.53;;
52618;SDS011;38513;53.234;6.568;2023-07-13T00:52:20;9.93;;;3.17;;
52618;SDS011;38513;53.234;6.568;2023-07-13T00:54:47;13.33;;;3.40;;
52618;SDS011;38513;53.234;6.568;2023-07-13T00:57:14;16.13;;;3.53;;
52618;SDS011;38513;53.234;6.568;2023-07-13T00:59:42;14.10;;;3.42;;
52618;SDS011;38513;53.234;6.568;2023-07-13T01:02:09;16.00;;;3.88;;
52618;SDS011;38513;53.234;6.568;2023-07-13T01:04:35;12.50;;;3.45;;
52618;SDS011;38513;53.234;6.568;2023-07-13T01:07:01;11.63;;;3.50;;
52618;SDS011;38513;53.234;6.568;2023-07-13T01:09:28;12.98;;;3.50;;
52618;SDS011;38513;53.234;6.568;2023-07-13T01:11:54;14.30;;;3.15;;
52618;SDS011;38513;53.234;6.568;2023-07-13T01:14:20;14.23;;;3.42;;
52618;SDS011;38513;53.234;6.568;2023-07-13T01:16:47;12.93;;;3.50;;
52618;SDS011;38513;53.234;6.568;2023-07-13T01:21:49;13.25;;;3.42;;
52618;SDS011;38513;53.234;6.568;2023-07-13T01:24:19;15.40;;;4.25;;
52618;SDS011;38513;53.234;6.568;2023-07-13T01:26:47;13.20;;;3.45;;
52618;SDS011;38513;53.234;6.568;2023-07-13T01:29:14;13.13;;;4.07;;
52618;SDS011;38513;53.234;6.568;2023-07-13T01:31:40;18.77;;;4.22;;
52618;SDS011;38513;53.234;6.568;2023-07-13T01:34:06;14.32;;;3.90;;
52618;SDS011;38513;53.234;6.568;2023-07-13T01:36:33;14.97;;;4.27;;
52618;SDS011;38513;53.234;6.568;2023-07-13T01:38:59;15.82;;;3.58;;
52618;SDS011;38513;53.234;6.568;2023-07-13T01:41:25;13.60;;;3.75;;
52618;SDS011;38513;53.234;6.568;2023-07-13T01:43:51;12.93;;;3.40;;
52618;SDS011;38513;53.234;6.568;2023-07-13T01:46:17;13.38;;;3.78;;
52618;SDS011;38513;53.234;6.568;2023-07-13T01:48:43;13.57;;;3.60;;
52618;SDS011;38513;53.234;6.568;2023-07-13T01:51:10;15.55;;;3.90;;
52618;SDS011;38513;53.234;6.568;2023-07-13T01:53:36;13.43;;;3.45;;
52618;SDS011;38513;53.234;6.568;2023-07-13T01:56:02;13.32;;;3.40;;
52618;SDS011;38513;53.234;6.568;2023-07-13T01:58:28;11.65;;;3.53;;
52618;SDS011;38513;53.234;6.568;2023-07-13T02:00:54;13.57;;;3.20;;
52618;SDS011;38513;53.234;6.568;2023-07-13T02:03:20;10.88;;;2.85;;
52618;SDS011;38513;53.234;6.568;2023-07-13T02:05:46;11.27;;;3.10;;
52618;SDS011;38513;53.234;6.568;2023-07-13T02:08:12;11.70;;;3.03;;
52618;SDS011;38513;53.234;6.568;2023-07-13T02:10:38;12.65;;;3.13;;
52618;SDS011;38513;53.234;6.568;2023-07-13T02:13:05;10.50;;;2.90;;
52618;SDS011;38513;53.234;6.568;2023-07-13T02:15:37;10.05;;;3.05;;
52618;SDS011;38513;53.234;6.568;2023-07-13T02:18:04;13.75;;;3.80;;
52618;SDS011;38513;53.234;6.568;2023-07-13T02:20:30;10.73;;;2.97;;
52618;SDS011;38513;53.234;6.568;2023-07-13T02:22:56;11.23;;;2.80;;
52618;SDS011;38513;53.234;6.568;2023-07-13T02:25:22;13.05;;;3.25;;
52618;SDS011;38513;53.234;6.568;2023-07-13T02:27:50;13.00;;;3.03;;
52618;SDS011;38513;53.234;6.568;2023-07-13T02:30:16;13.75;;;3.63;;
52618;SDS011;38513;53.234;6.568;2023-07-13T02:32:42;11.63;;;3.10;;
52618;SDS011;38513;53.234;6.568;2023-07-13T02:35:09;12.65;;;2.80;;
52618;SDS011;38513;53.234;6.568;2023-07-13T02:37:35;12.00;;;2.70;;
52618;SDS011;38513;53.234;6.568;2023-07-13T02:40:02;11.37;;;2.73;;
52618;SDS011;38513;53.234;6.568;2023-07-13T02:42:33;10.68;;;3.20;;
52618;SDS011;38513;53.234;6.568;2023-07-13T02:44:59;9.27;;;2.97;;
52618;SDS011;38513;53.234;6.568;2023-07-13T02:47:25;9.77;;;2.70;;
52618;SDS011;38513;53.234;6.568;2023-07-13T02:49:52;10.15;;;2.90;;
52618;SDS011;38513;53.234;6.568;2023-07-13T02:52:18;12.95;;;2.90;;
52618;SDS011;38513;53.234;6.568;2023-07-13T02:54:44;11.52;;;3.42;;
52618;SDS011;38513;53.234;6.568;2023-07-13T02:57:10;14.30;;;3.47;;
52618;SDS011;38513;53.234;6.568;2023-07-13T02:59:36;11.15;;;3.30;;
52618;SDS011;38513;53.234;6.568;2023-07-13T03:02:02;11.50;;;3.28;;
52618;SDS011;38513;53.234;6.568;2023-07-13T03:04:29;11.63;;;3.67;;
52618;SDS011;38513;53.234;6.568;2023-07-13T03:06:55;12.27;;;3.75;;
52618;SDS011;38513;53.234;6.568;2023-07-13T03:09:23;14.35;;;3.70;;
52618;SDS011;38513;53.234;6.568;2023-07-13T03:11:52;15.73;;;4.72;;
52618;SDS011;38513;53.234;6.568;2023-07-13T03:14:18;12.23;;;4.18;;
52618;SDS011;38513;53.234;6.568;2023-07-13T03:16:44;15.90;;;4.55;;
52618;SDS011;38513;53.234;6.568;2023-07-13T03:19:10;14.50;;;4.55;;
52618;SDS011;38513;53.234;6.568;2023-07-13T03:21:36;15.57;;;4.40;;
52618;SDS011;38513;53.234;6.568;2023-07-13T03:24:03;16.85;;;5.05;;
52618;SDS011;38513;53.234;6.568;2023-07-13T03:26:29;15.50;;;4.57;;
52618;SDS011;38513;53.234;6.568;2023-07-13T03:28:55;17.85;;;5.03;;
52618;SDS011;38513;53.234;6.568;2023-07-13T03:31:22;15.57;;;5.25;;
52618;SDS011;38513;53.234;6.568;2023-07-13T03:33:49;18.33;;;5.33;;
52618;SDS011;38513;53.234;6.568;2023-07-13T03:36:17;18.05;;;4.90;;
52618;SDS011;38513;53.234;6.568;2023-07-13T03:38:45;18.40;;;4.93;;
52618;SDS011;38513;53.234;6.568;2023-07-13T03:41:11;17.08;;;4.55;;
52618;SDS011;38513;53.234;6.568;2023-07-13T03:43:37;17.08;;;4.82;;
52618;SDS011;38513;53.234;6.568;2023-07-13T03:46:03;19.45;;;4.57;;
52618;SDS011;38513;53.234;6.568;2023-07-13T03:48:30;16.95;;;4.60;;
52618;SDS011;38513;53.234;6.568;2023-07-13T03:50:56;15.27;;;4.60;;
52618;SDS011;38513;53.234;6.568;2023-07-13T03:53:22;14.65;;;4.78;;
52618;SDS011;38513;53.234;6.568;2023-07-13T03:55:48;16.98;;;4.28;;
52618;SDS011;38513;53.234;6.568;2023-07-13T03:58:31;14.75;;;4.50;;
52618;SDS011;38513;53.234;6.568;2023-07-13T04:00:57;15.80;;;4.28;;
52618;SDS011;38513;53.234;6.568;2023-07-13T04:03:24;14.48;;;4.55;;
52618;SDS011;38513;53.234;6.568;2023-07-13T04:05:55;14.93;;;4.15;;
52618;SDS011;38513;53.234;6.568;2023-07-13T04:08:35;16.33;;;4.20;;
52618;SDS011;38513;53.234;6.568;2023-07-13T04:11:02;16.17;;;4.30;;
52618;SDS011;38513;53.234;6.568;2023-07-13T04:13:31;16.35;;;4.57;;
52618;SDS011;38513;53.234;6.568;2023-07-13T04:16:01;16.77;;;4.40;;
52618;SDS011;38513;53.234;6.568;2023-07-13T04:18:27;15.73;;;4.20;;
52618;SDS011;38513;53.234;6.568;2023-07-13T04:20:53;17.70;;;4.15;;
52618;SDS011;38513;53.234;6.568;2023-07-13T04:23:22;16.55;;;4.38;;
52618;SDS011;38513;53.234;6.568;2023-07-13T04:25:52;16.27;;;4.55;;
52618;SDS011;38513;53.234;6.568;2023-07-13T04:28:19;18.63;;;4.38;;
52618;SDS011;38513;53.234;6.568;2023-07-13T04:30:57;14.88;;;4.30;;
52618;SDS011;38513;53.234;6.568;2023-07-13T04:33:23;15.98;;;4.22;;
52618;SDS011;38513;53.234;6.568;2023-07-13T04:36:05;15.30;;;4.78;;
52618;SDS011;38513;53.234;6.568;2023-07-13T04:38:34;16.02;;;4.30;;
52618;SDS011;38513;53.234;6.568;2023-07-13T04:41:01;18.27;;;4.45;;
52618;SDS011;38513;53.234;6.568;2023-07-13T04:43:28;19.13;;;4.77;;
52618;SDS011;38513;53.234;6.568;2023-07-13T04:45:57;15.70;;;4.18;;
52618;SDS011;38513;53.234;6.568;2023-07-13T04:48:28;19.23;;;4.88;;
52618;SDS011;38513;53.234;6.568;2023-07-13T04:51:03;18.03;;;4.27;;
52618;SDS011;38513;53.234;6.568;2023-07-13T04:53:39;16.42;;;4.55;;
52618;SDS011;38513;53.234;6.568;2023-07-13T04:56:29;18.02;;;5.10;;
52618;SDS011;38513;53.234;6.568;2023-07-13T04:58:55;19.15;;;4.72;;
52618;SDS011;38513;53.234;6.568;2023-07-13T05:01:23;18.37;;;4.87;;
52618;SDS011;38513;53.234;6.568;2023-07-13T05:03:50;15.35;;;4.93;;
52618;SDS011;38513;53.234;6.568;2023-07-13T05:06:16;14.73;;;4.18;;
52618;SDS011;38513;53.234;6.568;2023-07-13T05:08:42;16.98;;;4.38;;
52618;SDS011;38513;53.234;6.568;2023-07-13T05:11:09;20.05;;;5.13;;
52618;SDS011;38513;53.234;6.568;2023-07-13T05:13:38;19.58;;;4.45;;
52618;SDS011;38513;53.234;6.568;2023-07-13T05:16:19;16.38;;;4.70;;
52618;SDS011;38513;53.234;6.568;2023-07-13T05:18:48;14.93;;;4.33;;
52618;SDS011;38513;53.234;6.568;2023-07-13T05:21:14;18.15;;;4.45;;
52618;SDS011;38513;53.234;6.568;2023-07-13T05:23:40;18.48;;;4.95;;
52618;SDS011;38513;53.234;6.568;2023-07-13T05:26:10;16.60;;;4.45;;
52618;SDS011;38513;53.234;6.568;2023-07-13T05:28:36;14.15;;;4.55;;
52618;SDS011;38513;53.234;6.568;2023-07-13T05:31:03;15.48;;;4.45;;
52618;SDS011;38513;53.234;6.568;2023-07-13T05:33:29;18.65;;;4.57;;
52618;SDS011;38513;53.234;6.568;2023-07-13T05:35:56;16.83;;;4.07;;
52618;SDS011;38513;53.234;6.568;2023-07-13T05:38:22;16.38;;;4.30;;
52618;SDS011;38513;53.234;6.568;2023-07-13T05:40:49;15.05;;;4.50;;
52618;SDS011;38513;53.234;6.568;2023-07-13T05:43:16;16.88;;;3.80;;
52618;SDS011;38513;53.234;6.568;2023-07-13T05:45:42;18.52;;;4.55;;
52618;SDS011;38513;53.234;6.568;2023-07-13T05:48:08;18.73;;;4.18;;
52618;SDS011;38513;53.234;6.568;2023-07-13T05:50:34;14.25;;;4.00;;
52618;SDS011;38513;53.234;6.568;2023-07-13T05:53:00;14.25;;;3.75;;
52618;SDS011;38513;53.234;6.568;2023-07-13T05:55:26;15.00;;;3.78;;
52618;SDS011;38513;53.234;6.568;2023-07-13T05:57:53;16.08;;;4.32;;
52618;SDS011;38513;53.234;6.568;2023-07-13T06:00:19;16.23;;;4.47;;
52618;SDS011;38513;53.234;6.568;2023-07-13T06:02:45;18.67;;;4.13;;
52618;SDS011;38513;53.234;6.568;2023-07-13T06:05:11;11.77;;;3.73;;
52618;SDS011;38513;53.234;6.568;2023-07-13T06:07:37;11.82;;;3.20;;
52618;SDS011;38513;53.234;6.568;2023-07-13T06:10:04;13.88;;;3.75;;
52618;SDS011;38513;53.234;6.568;2023-07-13T06:12:30;12.32;;;3.55;;
52618;SDS011;38513;53.234;6.568;2023-07-13T06:14:56;12.05;;;3.45;;
52618;SDS011;38513;53.234;6.568;2023-07-13T06:17:22;12.93;;;3.35;;
52618;SDS011;38513;53.234;6.568;2023-07-13T06:19:48;11.77;;;3.50;;
52618;SDS011;38513;53.234;6.568;2023-07-13T06:22:14;12.52;;;3.55;;
52618;SDS011;38513;53.234;6.568;2023-07-13T06:24:40;12.43;;;3.70;;
52618;SDS011;38513;53.234;6.568;2023-07-13T06:27:07;13.73;;;3.38;;
52618;SDS011;38513;53.234;6.568;2023-07-13T06:29:33;13.18;;;3.28;;
52618;SDS011;38513;53.234;6.568;2023-07-13T06:31:59;11.00;;;3.25;;
52618;SDS011;38513;53.234;6.568;2023-07-13T06:34:25;14.75;;;3.40;;
52618;SDS011;38513;53.234;6.568;2023-07-13T06:36:51;10.43;;;3.15;;
52618;SDS011;38513;53.234;6.568;2023-07-13T06:39:17;12.57;;;3.70;;
52618;SDS011;38513;53.234;6.568;2023-07-13T06:41:43;12.70;;;4.13;;
52618;SDS011;38513;53.234;6.568;2023-07-13T06:44:09;13.30;;;3.22;;
52618;SDS011;38513;53.234;6.568;2023-07-13T06:46:38;12.05;;;3.10;;
52618;SDS011;38513;53.234;6.568;2023-07-13T06:49:04;11.05;;;2.97;;
52618;SDS011;38513;53.234;6.568;2023-07-13T06:51:30;11.35;;;2.88;;
52618;SDS011;38513;53.234;6.568;2023-07-13T06:53:57;12.05;;;2.70;;
52618;SDS011;38513;53.234;6.568;2023-07-13T06:56:23;9.27;;;2.70;;
52618;SDS011;38513;53.234;6.568;2023-07-13T06:58:49;12.02;;;2.40;;
52618;SDS011;38513;53.234;6.568;2023-07-13T07:01:15;11.73;;;2.67;;
52618;SDS011;38513;53.234;6.568;2023-07-13T07:03:41;11.20;;;2.70;;
52618;SDS011;38513;53.234;6.568;2023-07-13T07:06:15;9.63;;;2.60;;
52618;SDS011;38513;53.234;6.568;2023-07-13T07:08:42;11.55;;;2.53;;
52618;SDS011;38513;53.234;6.568;2023-07-13T07:11:11;12.23;;;2.50;;
52618;SDS011;38513;53.234;6.568;2023-07-13T07:13:37;13.00;;;2.42;;
52618;SDS011;38513;53.234;6.568;2023-07-13T07:16:03;7.67;;;2.23;;
52618;SDS011;38513;53.234;6.568;2023-07-13T07:18:30;9.07;;;2.40;;
52618;SDS011;38513;53.234;6.568;2023-07-13T07:20:56;9.63;;;2.50;;
52618;SDS011;38513;53.234;6.568;2023-07-13T07:23:22;7.45;;;2.10;;
52618;SDS011;38513;53.234;6.568;2023-07-13T07:25:48;8.45;;;2.00;;
52618;SDS011;38513;53.234;6.568;2023-07-13T07:28:15;8.70;;;1.88;;
52618;SDS011;38513;53.234;6.568;2023-07-13T07:30:45;7.50;;;2.00;;
52618;SDS011;38513;53.234;6.568;2023-07-13T07:33:11;8.73;;;1.95;;
52618;SDS011;38513;53.234;6.568;2023-07-13T07:35:37;8.27;;;2.15;;
52618;SDS011;38513;53.234;6.568;2023-07-13T07:38:03;9.55;;;4.55;;
52618;SDS011;38513;53.234;6.568;2023-07-13T07:40:29;8.20;;;1.98;;
52618;SDS011;38513;53.234;6.568;2023-07-13T07:42:56;9.23;;;2.33;;
52618;SDS011;38513;53.234;6.568;2023-07-13T07:45:22;9.70;;;2.10;;
52618;SDS011;38513;53.234;6.568;2023-07-13T07:47:48;8.57;;;1.75;;
52618;SDS011;38513;53.234;6.568;2023-07-13T07:50:15;7.53;;;2.30;;
52618;SDS011;38513;53.234;6.568;2023-07-13T07:52:41;8.02;;;1.98;;
52618;SDS011;38513;53.234;6.568;2023-07-13T07:55:09;6.72;;;1.83;;
52618;SDS011;38513;53.234;6.568;2023-07-13T07:57:35;9.32;;;2.50;;
52618;SDS011;38513;53.234;6.568;2023-07-13T08:00:01;9.27;;;2.13;;
52618;SDS011;38513;53.234;6.568;2023-07-13T08:02:27;7.67;;;2.30;;
52618;SDS011;38513;53.234;6.568;2023-07-13T08:04:53;8.98;;;2.22;;
52618;SDS011;38513;53.234;6.568;2023-07-13T08:07:19;7.70;;;2.15;;
52618;SDS011;38513;53.234;6.568;2023-07-13T08:09:45;8.38;;;2.28;;
52618;SDS011;38513;53.234;6.568;2023-07-13T08:12:12;7.95;;;1.63;;
52618;SDS011;38513;53.234;6.568;2023-07-13T08:14:38;6.57;;;1.90;;
52618;SDS011;38513;53.234;6.568;2023-07-13T08:17:04;5.53;;;1.52;;
52618;SDS011;38513;53.234;6.568;2023-07-13T08:19:30;5.25;;;1.63;;
52618;SDS011;38513;53.234;6.568;2023-07-13T08:21:56;5.40;;;1.30;;
52618;SDS011;38513;53.234;6.568;2023-07-13T08:24:23;7.90;;;1.85;;
52618;SDS011;38513;53.234;6.568;2023-07-13T08:26:50;7.38;;;1.60;;
52618;SDS011;38513;53.234;6.568;2023-07-13T08:29:17;9.10;;;1.90;;
52618;SDS011;38513;53.234;6.568;2023-07-13T08:31:43;6.55;;;1.70;;
52618;SDS011;38513;53.234;6.568;2023-07-13T08:34:10;7.35;;;1.80;;
52618;SDS011;38513;53.234;6.568;2023-07-13T08:36:36;8.00;;;2.05;;
52618;SDS011;38513;53.234;6.568;2023-07-13T08:39:02;7.53;;;1.83;;
52618;SDS011;38513;53.234;6.568;2023-07-13T08:41:28;9.52;;;2.40;;
52618;SDS011;38513;53.234;6.568;2023-07-13T08:43:56;7.18;;;2.15;;
52618;SDS011;38513;53.234;6.568;2023-07-13T08:48:50;8.60;;;2.38;;
52618;SDS011;38513;53.234;6.568;2023-07-13T08:53:48;9.38;;;2.70;;
52618;SDS011;38513;53.234;6.568;2023-07-13T08:56:19;9.85;;;2.45;;
52618;SDS011;38513;53.234;6.568;2023-07-13T08:58:46;8.13;;;2.42;;
52618;SDS011;38513;53.234;6.568;2023-07-13T09:06:20;9.45;;;2.47;;
52618;SDS011;38513;53.234;6.568;2023-07-13T09:08:59;8.20;;;2.55;;
52618;SDS011;38513;53.234;6.568;2023-07-13T09:16:49;9.43;;;2.40;;
52618;SDS011;38513;53.234;6.568;2023-07-13T09:19:19;8.73;;;2.23;;
52618;SDS011;38513;53.234;6.568;2023-07-13T09:21:47;6.68;;;2.17;;
52618;SDS011;38513;53.234;6.568;2023-07-13T09:27:00;8.25;;;2.33;;
52618;SDS011;38513;53.234;6.568;2023-07-13T09:29:30;6.70;;;2.00;;
52618;SDS011;38513;53.234;6.568;2023-07-13T09:32:01;7.17;;;2.20;;
52618;SDS011;38513;53.234;6.568;2023-07-13T09:34:28;8.15;;;2.17;;
52618;SDS011;38513;53.234;6.568;2023-07-13T09:36:56;8.00;;;2.28;;
52618;SDS011;38513;53.234;6.568;2023-07-13T09:39:30;7.53;;;2.30;;
52618;SDS011;38513;53.234;6.568;2023-07-13T09:42:17;7.43;;;2.00;;
52618;SDS011;38513;53.234;6.568;2023-07-13T09:44:54;6.38;;;1.80;;
52618;SDS011;38513;53.234;6.568;2023-07-13T09:47:22;6.75;;;1.98;;
52618;SDS011;38513;53.234;6.568;2023-07-13T09:50:02;7.30;;;1.92;;
52618;SDS011;38513;53.234;6.568;2023-07-13T09:52:41;8.85;;;1.90;;
52618;SDS011;38513;53.234;6.568;2023-07-13T10:00:39;6.35;;;1.60;;
52618;SDS011;38513;53.234;6.568;2023-07-13T10:03:14;7.13;;;1.77;;
52618;SDS011;38513;53.234;6.568;2023-07-13T10:05:42;5.70;;;1.67;;
52618;SDS011;38513;53.234;6.568;2023-07-13T10:08:28;5.65;;;1.35;;
52618;SDS011;38513;53.234;6.568;2023-07-13T10:11:08;7.13;;;1.88;;
52618;SDS011;38513;53.234;6.568;2023-07-13T10:16:31;7.72;;;1.95;;
52618;SDS011;38513;53.234;6.568;2023-07-13T10:18:59;5.80;;;1.50;;
52618;SDS011;38513;53.234;6.568;2023-07-13T10:21:38;5.68;;;1.40;;
52618;SDS011;38513;53.234;6.568;2023-07-13T10:26:46;4.60;;;1.40;;
52618;SDS011;38513;53.234;6.568;2023-07-13T10:29:14;4.97;;;1.30;;
52618;SDS011;38513;53.234;6.568;2023-07-13T10:31:41;6.18;;;1.40;;
52618;SDS011;38513;53.234;6.568;2023-07-13T10:34:11;4.95;;;1.10;;
52618;SDS011;38513;53.234;6.568;2023-07-13T10:36:39;5.18;;;1.30;;
52618;SDS011;38513;53.234;6.568;2023-07-13T10:39:16;5.05;;;1.50;;
52618;SDS011;38513;53.234;6.568;2023-07-13T10:41:43;6.53;;;1.23;;
52618;SDS011;38513;53.234;6.568;2023-07-13T10:44:46;5.15;;;1.10;;
52618;SDS011;38513;53.234;6.568;2023-07-13T10:47:08;5.75;;;1.27;;
52618;SDS011;38513;53.234;6.568;2023-07-13T10:49:39;4.18;;;1.10;;
52618;SDS011;38513;53.234;6.568;2023-07-13T10:54:53;5.38;;;1.10;;
52618;SDS011;38513;53.234;6.568;2023-07-13T10:57:28;5.30;;;1.10;;
52618;SDS011;38513;53.234;6.568;2023-07-13T11:00:35;5.97;;;1.40;;
52618;SDS011;38513;53.234;6.568;2023-07-13T11:03:18;3.97;;;0.93;;
52618;SDS011;38513;53.234;6.568;2023-07-13T11:18:46;4.63;;;1.25;;
52618;SDS011;38513;53.234;6.568;2023-07-13T11:21:14;4.20;;;1.30;;
52618;SDS011;38513;53.234;6.568;2023-07-13T11:23:45;4.87;;;1.27;;
52618;SDS011;38513;53.234;6.568;2023-07-13T11:28:57;5.40;;;1.33;;
52618;SDS011;38513;53.234;6.568;2023-07-13T11:31:23;6.28;;;1.52;;
52618;SDS011;38513;53.234;6.568;2023-07-13T11:33:55;5.57;;;1.40;;
52618;SDS011;38513;53.234;6.568;2023-07-13T11:36:23;6.65;;;1.55;;
52618;SDS011;38513;53.234;6.568;2023-07-13T11:41:28;5.75;;;1.40;;
52618;SDS011;38513;53.234;6.568;2023-07-13T11:44:01;6.18;;;1.75;;
52618;SDS011;38513;53.234;6.568;2023-07-13T11:46:30;5.30;;;1.73;;
52618;SDS011;38513;53.234;6.568;2023-07-13T11:48:57;7.03;;;1.63;;
52618;SDS011;38513;53.234;6.568;2023-07-13T11:53:56;5.47;;;1.42;;
52618;SDS011;38513;53.234;6.568;2023-07-13T11:56:23;6.13;;;1.60;;
52618;SDS011;38513;53.234;6.568;2023-07-13T11:58:51;5.10;;;1.42;;
52618;SDS011;38513;53.234;6.568;2023-07-13T12:01:22;5.13;;;1.30;;
52618;SDS011;38513;53.234;6.568;2023-07-13T12:03:49;5.57;;;1.50;;
52618;SDS011;38513;53.234;6.568;2023-07-13T12:06:35;5.93;;;1.50;;
52618;SDS011;38513;53.234;6.568;2023-07-13T12:09:11;5.35;;;1.42;;
52618;SDS011;38513;53.234;6.568;2023-07-13T12:11:45;6.15;;;1.40;;
52618;SDS011;38513;53.234;6.568;2023-07-13T12:14:14;7.47;;;1.58;;
52618;SDS011;38513;53.234;6.568;2023-07-13T12:16:41;5.97;;;1.60;;
52618;SDS011;38513;53.234;6.568;2023-07-13T12:21:53;9.90;;;1.75;;
52618;SDS011;38513;53.234;6.568;2023-07-13T12:24:25;6.75;;;1.48;;
52618;SDS011;38513;53.234;6.568;2023-07-13T12:26:59;6.53;;;1.40;;
52618;SDS011;38513;53.234;6.568;2023-07-13T12:29:31;6.30;;;1.50;;
52618;SDS011;38513;53.234;6.568;2023-07-13T12:32:00;7.78;;;1.70;;
52618;SDS011;38513;53.234;6.568;2023-07-13T12:34:30;6.95;;;1.60;;
52618;SDS011;38513;53.234;6.568;2023-07-13T12:37:00;7.63;;;1.50;;
52618;SDS011;38513;53.234;6.568;2023-07-13T12:44:49;6.30;;;1.25;;
52618;SDS011;38513;53.234;6.568;2023-07-13T12:47:15;6.63;;;2.65;;
52618;SDS011;38513;53.234;6.568;2023-07-13T12:49:47;4.38;;;1.30;;
52618;SDS011;38513;53.234;6.568;2023-07-13T12:52:19;7.90;;;1.45;;
52618;SDS011;38513;53.234;6.568;2023-07-13T12:54:55;4.45;;;1.17;;
52618;SDS011;38513;53.234;6.568;2023-07-13T12:57:30;5.97;;;1.50;;
52618;SDS011;38513;53.234;6.568;2023-07-13T12:59:56;5.67;;;1.50;;
52618;SDS011;38513;53.234;6.568;2023-07-13T13:02:32;5.20;;;1.50;;
52618;SDS011;38513;53.234;6.568;2023-07-13T13:05:02;8.32;;;2.10;;
52618;SDS011;38513;53.234;6.568;2023-07-13T13:07:32;6.00;;;1.70;;
52618;SDS011;38513;53.234;6.568;2023-07-13T13:09:59;6.68;;;1.65;;
52618;SDS011;38513;53.234;6.568;2023-07-13T13:12:25;7.47;;;1.70;;
52618;SDS011;38513;53.234;6.568;2023-07-13T13:14:51;6.75;;;1.50;;
52618;SDS011;38513;53.234;6.568;2023-07-13T13:17:22;6.22;;;1.60;;
52618;SDS011;38513;53.234;6.568;2023-07-13T13:19:58;8.07;;;1.80;;
52618;SDS011;38513;53.234;6.568;2023-07-13T13:22:24;7.87;;;1.90;;
52618;SDS011;38513;53.234;6.568;2023-07-13T13:25:19;8.23;;;1.90;;
52618;SDS011;38513;53.234;6.568;2023-07-13T13:27:47;6.90;;;1.70;;
52618;SDS011;38513;53.234;6.568;2023-07-13T13:30:15;5.88;;;1.60;;
52618;SDS011;38513;53.234;6.568;2023-07-13T13:32:46;5.97;;;1.40;;
52618;SDS011;38513;53.234;6.568;2023-07-13T13:35:16;8.15;;;1.88;;
52618;SDS011;38513;53.234;6.568;2023-07-13T13:37:43;7.93;;;2.10;;
52618;SDS011;38513;53.234;6.568;2023-07-13T13:42:41;7.70;;;2.50;;
52618;SDS011;38513;53.234;6.568;2023-07-13T13:45:10;10.93;;;2.45;;
52618;SDS011;38513;53.234;6.568;2023-07-13T13:47:38;7.80;;;2.20;;
52618;SDS011;38513;53.234;6.568;2023-07-13T13:50:14;9.77;;;2.22;;
52618;SDS011;38513;53.234;6.568;2023-07-13T13:52:41;8.13;;;2.10;;
52618;SDS011;38513;53.234;6.568;2023-07-13T13:55:11;7.17;;;1.83;;
52618;SDS011;38513;53.234;6.568;2023-07-13T13:57:37;6.57;;;1.90;;
52618;SDS011;38513;53.234;6.568;2023-07-13T14:00:04;6.38;;;1.80;;
52618;SDS011;38513;53.234;6.568;2023-07-13T14:02:30;8.48;;;2.40;;
52618;SDS011;38513;53.234;6.568;2023-07-13T14:05:06;7.95;;;2.05;;
52618;SDS011;38513;53.234;6.568;2023-07-13T14:07:36;6.40;;;1.98;;
52618;SDS011;38513;53.234;6.568;2023-07-13T14:10:08;6.95;;;1.90;;
52618;SDS011;38513;53.234;6.568;2023-07-13T14:12:35;8.20;;;2.05;;
52618;SDS011;38513;53.234;6.568;2023-07-13T14:15:01;6.55;;;1.90;;
52618;SDS011;38513;53.234;6.568;2023-07-13T14:17:27;8.65;;;1.90;;
52618;SDS011;38513;53.234;6.568;2023-07-13T14:19:54;8.65;;;1.90;;
52618;SDS011;38513;53.234;6.568;2023-07-13T14:22:28;7.07;;;1.90;;
52618;SDS011;38513;53.234;6.568;2023-07-13T14:24:55;5.53;;;1.63;;
52618;SDS011;38513;53.234;6.568;2023-07-13T14:27:24;7.05;;;1.75;;
52618;SDS011;38513;53.234;6.568;2023-07-13T14:29:50;6.82;;;2.10;;
52618;SDS011;38513;53.234;6.568;2023-07-13T14:32:16;6.60;;;1.97;;
52618;SDS011;38513;53.234;6.568;2023-07-13T14:34:42;6.95;;;1.70;;
52618;SDS011;38513;53.234;6.568;2023-07-13T14:37:12;6.78;;;1.67;;
52618;SDS011;38513;53.234;6.568;2023-07-13T14:39:39;5.97;;;1.70;;
52618;SDS011;38513;53.234;6.568;2023-07-13T14:42:08;7.88;;;1.85;;
52618;SDS011;38513;53.234;6.568;2023-07-13T14:44:35;6.25;;;1.80;;
52618;SDS011;38513;53.234;6.568;2023-07-13T14:47:02;6.70;;;1.70;;
52618;SDS011;38513;53.234;6.568;2023-07-13T14:52:16;8.10;;;1.85;;
52618;SDS011;38513;53.234;6.568;2023-07-13T14:54:43;7.40;;;1.67;;
52618;SDS011;38513;53.234;6.568;2023-07-13T14:57:17;8.45;;;1.95;;
52618;SDS011;38513;53.234;6.568;2023-07-13T14:59:44;6.68;;;1.90;;
52618;SDS011;38513;53.234;6.568;2023-07-13T15:02:18;7.03;;;1.80;;
52618;SDS011;38513;53.234;6.568;2023-07-13T15:04:47;6.63;;;2.08;;
52618;SDS011;38513;53.234;6.568;2023-07-13T15:07:36;7.03;;;1.83;;
52618;SDS011;38513;53.234;6.568;2023-07-13T15:10:22;11.73;;;2.75;;
52618;SDS011;38513;53.234;6.568;2023-07-13T15:12:50;6.85;;;2.20;;
52618;SDS011;38513;53.234;6.568;2023-07-13T15:15:16;7.20;;;2.05;;
52618;SDS011;38513;53.234;6.568;2023-07-13T15:17:44;7.50;;;2.03;;
52618;SDS011;38513;53.234;6.568;2023-07-13T15:22:45;9.68;;;2.20;;
52618;SDS011;38513;53.234;6.568;2023-07-13T15:25:16;8.38;;;2.13;;
52618;SDS011;38513;53.234;6.568;2023-07-13T15:27:46;9.05;;;2.20;;
52618;SDS011;38513;53.234;6.568;2023-07-13T15:30:28;7.47;;;1.90;;
52618;SDS011;38513;53.234;6.568;2023-07-13T15:32:55;7.30;;;2.30;;
52618;SDS011;38513;53.234;6.568;2023-07-13T15:35:24;6.75;;;1.92;;
52618;SDS011;38513;53.234;6.568;2023-07-13T15:37:53;8.35;;;2.00;;
52618;SDS011;38513;53.234;6.568;2023-07-13T15:40:26;8.05;;;2.10;;
52618;SDS011;38513;53.234;6.568;2023-07-13T15:42:52;8.90;;;2.20;;
52618;SDS011;38513;53.234;6.568;2023-07-13T15:45:27;7.57;;;2.00;;
52618;SDS011;38513;53.234;6.568;2023-07-13T15:47:53;7.10;;;1.88;;
52618;SDS011;38513;53.234;6.568;2023-07-13T15:50:21;8.23;;;2.20;;
52618;SDS011;38513;53.234;6.568;2023-07-13T15:52:54;6.53;;;1.83;;
52618;SDS011;38513;53.234;6.568;2023-07-13T15:55:21;6.50;;;1.85;;
52618;SDS011;38513;53.234;6.568;2023-07-13T15:57:51;7.72;;;2.22;;
52618;SDS011;38513;53.234;6.568;2023-07-13T16:00:22;9.13;;;2.10;;
52618;SDS011;38513;53.234;6.568;2023-07-13T16:02:49;7.88;;;1.92;;